createdAt,value
2022-09-26T00:00:53.433Z,6.95
2022-09-26T00:03:21.120Z,9.52
2022-09-26T00:05:48.729Z,8.73
2022-09-26T00:08:16.392Z,7.72
2022-09-26T00:10:44.053Z,7.57
2022-09-26T00:13:13.075Z,7.88
2022-09-26T00:15:40.700Z,8.50
2022-09-26T00:18:08.329Z,7.70
2022-09-26T00:20:37.974Z,8.82
2022-09-26T00:23:05.594Z,7.00
2022-09-26T00:25:33.250Z,9.90
2022-09-26T00:28:00.862Z,7.03
2022-09-26T00:30:29.910Z,7.88
2022-09-26T00:32:57.599Z,10.30
2022-09-26T00:35:25.228Z,9.07
2022-09-26T00:37:52.884Z,9.25
2022-09-26T00:40:20.610Z,7.75
2022-09-26T00:42:48.279Z,8.10
2022-09-26T00:45:15.943Z,7.68
2022-09-26T00:47:47.348Z,8.80
2022-09-26T00:50:22.727Z,7.85
2022-09-26T00:52:53.828Z,8.52
2022-09-26T00:55:24.966Z,9.30
2022-09-26T00:57:57.369Z,9.18
2022-09-26T01:00:25.135Z,10.05
2022-09-26T01:02:54.649Z,8.43
2022-09-26T01:05:24.204Z,8.07
2022-09-26T01:07:54.578Z,8.02
2022-09-26T01:10:24.138Z,8.57
2022-09-26T01:12:52.240Z,9.13
2022-09-26T01:15:20.267Z,8.63
2022-09-26T01:17:48.250Z,8.48
2022-09-26T01:20:29.003Z,10.90
2022-09-26T01:23:48.529Z,12.25
2022-09-26T01:26:35.854Z,8.10
2022-09-26T01:29:39.027Z,7.20
2022-09-26T01:32:38.497Z,9.98
2022-09-26T01:35:13.290Z,8.85
2022-09-26T01:37:49.278Z,7.28
2022-09-26T01:40:24.496Z,7.72
2022-09-26T01:43:05.136Z,10.95
2022-09-26T01:45:43.773Z,10.55
2022-09-26T01:48:18.547Z,8.10
2022-09-26T01:50:51.274Z,8.63
2022-09-26T01:53:23.922Z,10.43
2022-09-26T01:55:55.711Z,9.73
2022-09-26T01:58:28.614Z,10.68
2022-09-26T02:01:02.255Z,11.98
2022-09-26T02:03:37.572Z,10.35
2022-09-26T02:06:09.536Z,8.75
2022-09-26T02:08:41.745Z,9.55
2022-09-26T02:11:13.635Z,12.15
2022-09-26T02:13:48.371Z,10.65
2022-09-26T02:16:22.110Z,9.10
2022-09-26T02:18:55.651Z,11.43
2022-09-26T02:21:24.430Z,9.77
2022-09-26T02:23:54.330Z,12.38
2022-09-26T02:26:22.263Z,8.80
2022-09-26T02:28:50.146Z,8.13
2022-09-26T02:31:22.983Z,10.27
2022-09-26T02:33:53.590Z,9.77
2022-09-26T02:36:23.181Z,10.75
2022-09-26T02:38:50.807Z,9.50
2022-09-26T02:41:29.526Z,11.25
2022-09-26T02:44:12.644Z,10.05
2022-09-26T02:47:16.952Z,8.07
2022-09-26T02:50:04.678Z,12.38
2022-09-26T02:52:41.640Z,13.05
2022-09-26T02:55:22.198Z,9.73
2022-09-26T02:58:03.891Z,9.40
2022-09-26T03:00:49.197Z,9.27
2022-09-26T03:03:24.191Z,9.63
2022-09-26T03:05:57.927Z,10.52
2022-09-26T03:08:27.997Z,11.13
2022-09-26T03:10:59.662Z,11.88
2022-09-26T03:13:28.804Z,10.97
2022-09-26T03:15:59.704Z,9.98
2022-09-26T03:18:32.612Z,9.20
2022-09-26T03:21:01.823Z,10.80
2022-09-26T03:23:30.256Z,11.60
2022-09-26T03:26:01.423Z,10.93
2022-09-26T03:28:32.770Z,11.38
2022-09-26T03:31:03.119Z,10.38
2022-09-26T03:33:30.849Z,10.13
2022-09-26T03:36:00.435Z,11.40
2022-09-26T03:38:29.377Z,9.73
2022-09-26T03:40:59.097Z,10.25
2022-09-26T03:43:26.786Z,8.35
2022-09-26T03:45:55.017Z,9.13
2022-09-26T03:48:22.712Z,12.10
2022-09-26T03:50:50.331Z,8.32
2022-09-26T03:53:18.814Z,9.82
2022-09-26T03:55:47.833Z,8.45
2022-09-26T03:58:15.465Z,9.25
2022-09-26T04:00:43.290Z,7.57
2022-09-26T04:03:10.993Z,9.55
2022-09-26T04:05:38.969Z,7.05
2022-09-26T04:08:06.566Z,9.48
2022-09-26T04:10:34.260Z,10.48
2022-09-26T04:13:03.389Z,11.70
2022-09-26T04:15:31.427Z,14.73
2022-09-26T04:17:59.007Z,12.05
2022-09-26T04:20:26.689Z,11.50
2022-09-26T04:22:55.091Z,10.63
2022-09-26T04:25:22.726Z,12.52
2022-09-26T04:27:50.352Z,9.70
2022-09-26T04:30:19.483Z,11.70
2022-09-26T04:32:47.668Z,9.57
2022-09-26T04:35:15.427Z,7.72
2022-09-26T04:37:43.203Z,10.55
2022-09-26T04:40:11.598Z,8.75
2022-09-26T04:42:41.422Z,12.88
2022-09-26T04:45:09.815Z,12.27
2022-09-26T04:47:38.796Z,10.93
2022-09-26T04:50:06.929Z,10.07
2022-09-26T04:52:34.544Z,9.20
2022-09-26T04:55:02.187Z,8.05
2022-09-26T04:57:29.787Z,11.43
2022-09-26T04:59:57.446Z,10.55
2022-09-26T05:02:25.096Z,9.00
2022-09-26T05:04:55.108Z,10.48
2022-09-26T05:07:22.733Z,10.13
2022-09-26T05:09:50.504Z,10.27
2022-09-26T05:12:18.605Z,10.20
2022-09-26T05:14:46.217Z,10.68
2022-09-26T05:17:14.095Z,9.57
2022-09-26T05:19:42.985Z,13.45
2022-09-26T05:22:12.031Z,13.77
2022-09-26T05:24:57.452Z,12.30
2022-09-26T05:27:25.208Z,11.45
2022-09-26T05:29:55.403Z,10.77
2022-09-26T05:32:23.010Z,8.90
2022-09-26T05:34:51.016Z,9.23
2022-09-26T05:37:20.007Z,7.32
2022-09-26T05:40:05.458Z,8.18
2022-09-26T05:42:49.633Z,11.27
2022-09-26T05:45:17.370Z,10.57
2022-09-26T05:47:45.137Z,11.50
2022-09-26T05:50:12.795Z,13.75
2022-09-26T05:52:41.782Z,12.98
2022-09-26T05:55:11.835Z,12.82
2022-09-26T05:57:39.486Z,12.85
2022-09-26T06:00:08.853Z,10.75
2022-09-26T06:02:36.513Z,11.93
2022-09-26T06:05:04.552Z,10.05
2022-09-26T06:07:33.445Z,11.68
2022-09-26T06:10:02.626Z,11.13
2022-09-26T06:12:30.261Z,11.30
2022-09-26T06:14:57.938Z,11.40
2022-09-26T06:17:26.409Z,13.55
2022-09-26T06:19:54.058Z,9.25
2022-09-26T06:22:21.708Z,8.40
2022-09-26T06:24:49.341Z,8.88
2022-09-26T06:27:18.368Z,10.10
2022-09-26T06:29:46.023Z,8.52
2022-09-26T06:32:13.612Z,13.38
2022-09-26T06:34:41.285Z,16.17
2022-09-26T06:37:08.902Z,10.13
2022-09-26T06:39:37.022Z,12.60
2022-09-26T06:42:05.675Z,13.90
2022-09-26T06:44:34.869Z,12.32
2022-09-26T06:47:02.594Z,13.45
2022-09-26T06:49:30.264Z,14.00
2022-09-26T06:51:57.961Z,10.35
2022-09-26T06:54:25.592Z,11.43
2022-09-26T06:56:53.901Z,11.38
2022-09-26T06:59:22.907Z,13.73
2022-09-26T07:01:51.929Z,10.48
2022-09-26T07:04:19.660Z,9.57
2022-09-26T07:06:47.338Z,10.48
2022-09-26T07:09:15.260Z,12.45
2022-09-26T07:12:12.953Z,14.52
2022-09-26T07:14:34.311Z,12.38
2022-09-26T07:17:03.506Z,9.98
2022-09-26T07:19:31.176Z,12.60
2022-09-26T07:21:58.941Z,10.18
2022-09-26T07:24:27.243Z,12.80
2022-09-26T07:26:54.880Z,10.52
2022-09-26T07:29:22.491Z,15.57
2022-09-26T07:31:50.204Z,13.73
2022-09-26T07:34:19.273Z,16.65
2022-09-26T07:36:47.463Z,15.45
2022-09-26T07:39:15.331Z,13.10
2022-09-26T07:41:45.945Z,18.92
2022-09-26T07:47:31.155Z,11.27
2022-09-26T07:50:22.878Z,15.52
2022-09-26T07:52:52.303Z,13.65
2022-09-26T07:55:21.821Z,9.07
2022-09-26T07:57:49.997Z,10.63
2022-09-26T08:00:19.558Z,13.02
2022-09-26T08:02:47.620Z,13.18
2022-09-26T08:05:20.141Z,11.35
2022-09-26T08:07:49.627Z,9.65
2022-09-26T08:10:20.013Z,12.60
2022-09-26T08:12:47.710Z,12.20
2022-09-26T08:15:16.247Z,13.13
2022-09-26T08:17:44.456Z,16.40
2022-09-26T08:20:12.777Z,11.73
2022-09-26T08:22:41.808Z,11.77
2022-09-26T08:25:10.505Z,15.27
2022-09-26T08:27:38.267Z,14.23
2022-09-26T08:30:07.656Z,13.25
2022-09-26T08:32:35.390Z,13.40
2022-09-26T08:35:03.128Z,13.32
2022-09-26T08:37:31.124Z,11.23
2022-09-26T08:40:01.020Z,16.55
2022-09-26T08:42:41.841Z,18.88
2022-09-26T08:45:57.451Z,18.10
2022-09-26T08:48:40.000Z,20.08
2022-09-26T08:51:13.753Z,15.98
2022-09-26T08:53:49.756Z,17.70
2022-09-26T08:56:22.247Z,20.83
2022-09-26T09:01:27.402Z,18.33
2022-09-26T09:04:02.198Z,15.48
2022-09-26T09:06:30.166Z,11.77
2022-09-26T09:08:59.032Z,14.52
2022-09-26T09:12:02.482Z,15.05
2022-09-26T09:14:43.306Z,16.77
2022-09-26T09:17:22.905Z,16.00
2022-09-26T09:20:00.215Z,20.65
2022-09-26T09:22:44.982Z,20.95
2022-09-26T09:25:17.464Z,18.67
2022-09-26T09:30:41.232Z,15.85
2022-09-26T09:33:14.584Z,13.15
2022-09-26T09:35:46.112Z,15.05
2022-09-26T09:38:17.394Z,10.57
2022-09-26T09:40:52.686Z,18.10
2022-09-26T09:43:27.908Z,12.35
2022-09-26T09:46:02.615Z,14.98
2022-09-26T09:48:31.031Z,18.38
2022-09-26T09:51:17.344Z,12.35
2022-09-26T09:54:00.501Z,11.57
2022-09-26T09:56:39.253Z,12.82
2022-09-26T09:59:23.463Z,12.45
2022-09-26T10:02:01.114Z,10.02
2022-09-26T10:04:40.743Z,13.10
2022-09-26T10:07:29.156Z,15.45
2022-09-26T10:09:59.565Z,14.65
2022-09-26T10:12:44.027Z,11.23
2022-09-26T10:15:36.850Z,11.60
2022-09-26T10:20:57.349Z,11.30
2022-09-26T10:23:31.570Z,19.48
2022-09-26T10:26:03.179Z,22.38
2022-09-26T10:28:35.850Z,20.40
2022-09-26T10:31:08.798Z,20.90
2022-09-26T10:33:38.664Z,18.55
2022-09-26T10:36:20.646Z,19.33
2022-09-26T10:39:11.590Z,17.05
2022-09-26T10:41:41.669Z,25.48
2022-09-26T10:44:23.625Z,12.27
2022-09-26T10:46:56.463Z,14.90
2022-09-26T10:49:30.922Z,25.00
2022-09-26T10:52:11.691Z,15.38
2022-09-26T10:54:47.362Z,14.18
2022-09-26T10:57:28.081Z,18.13
2022-09-26T10:59:59.411Z,19.10
2022-09-26T11:02:29.635Z,17.38
2022-09-26T11:05:18.068Z,14.95
2022-09-26T11:07:49.535Z,10.77
2022-09-26T11:10:24.334Z,12.07
2022-09-26T11:13:02.278Z,16.35
2022-09-26T11:15:30.664Z,17.08
2022-09-26T11:17:59.940Z,16.75
2022-09-26T11:20:41.611Z,12.32
2022-09-26T11:23:19.486Z,16.38
2022-09-26T11:25:58.405Z,16.33
2022-09-26T11:28:32.594Z,15.80
2022-09-26T11:31:06.045Z,13.70
2022-09-26T11:33:35.211Z,16.45
2022-09-26T11:36:25.230Z,8.70
2022-09-26T11:38:57.706Z,13.07
2022-09-26T11:44:20.808Z,6.45
2022-09-26T11:46:59.118Z,11.48
2022-09-26T11:49:46.146Z,13.77
2022-09-26T11:52:29.693Z,12.27
2022-09-26T11:55:08.413Z,16.92
2022-09-26T11:57:45.094Z,11.82
2022-09-26T12:00:24.662Z,10.43
2022-09-26T12:03:17.552Z,18.35
2022-09-26T12:08:32.955Z,4.55
2022-09-26T12:11:10.557Z,8.02
2022-09-26T12:13:52.166Z,11.82
2022-09-26T12:16:28.008Z,9.07
2022-09-26T12:19:05.254Z,7.45
2022-09-26T12:22:06.621Z,7.38
2022-09-26T12:24:43.796Z,10.07
2022-09-26T12:27:21.646Z,7.63
2022-09-26T12:29:59.051Z,6.50
2022-09-26T12:32:56.625Z,7.85
2022-09-26T12:35:34.784Z,11.40
2022-09-26T12:38:24.544Z,8.57
2022-09-26T12:41:13.698Z,10.25
2022-09-26T12:43:59.739Z,6.57
2022-09-26T12:46:48.167Z,8.60
2022-09-26T12:49:34.446Z,7.70
2022-09-26T12:52:12.253Z,5.57
2022-09-26T12:54:56.132Z,7.13
2022-09-26T12:57:32.857Z,5.38
2022-09-26T13:00:16.652Z,5.70
2022-09-26T13:03:07.863Z,5.93
2022-09-26T13:05:50.294Z,6.85
2022-09-26T13:08:26.214Z,7.05
2022-09-26T13:11:08.443Z,9.23
2022-09-26T13:13:59.591Z,7.55
2022-09-26T13:16:38.178Z,9.02
2022-09-26T13:19:17.533Z,8.80
2022-09-26T13:21:49.898Z,7.88
2022-09-26T13:24:22.559Z,7.50
2022-09-26T13:26:54.786Z,8.70
2022-09-26T13:29:28.580Z,8.95
2022-09-26T13:32:13.169Z,13.50
2022-09-26T13:34:47.176Z,10.00
2022-09-26T13:37:29.008Z,10.95
2022-09-26T13:40:06.694Z,11.87
2022-09-26T13:42:45.632Z,15.35
2022-09-26T13:45:23.679Z,11.18
2022-09-26T13:47:57.444Z,13.75
2022-09-26T13:50:34.020Z,16.52
2022-09-26T13:53:11.680Z,9.98
2022-09-26T13:55:39.440Z,13.20
2022-09-26T13:58:21.482Z,17.13
2022-09-26T14:00:57.502Z,12.85
2022-09-26T14:03:43.085Z,16.30
2022-09-26T14:06:27.198Z,19.35
2022-09-26T14:09:24.950Z,19.40
2022-09-26T14:12:17.548Z,21.75
2022-09-26T14:14:51.622Z,22.40
2022-09-26T14:18:04.147Z,15.07
2022-09-26T14:20:38.299Z,20.60
2022-09-26T14:23:06.102Z,19.88
2022-09-26T14:25:58.811Z,20.38
2022-09-26T14:28:33.908Z,21.35
2022-09-26T14:31:22.037Z,22.83
2022-09-26T14:33:53.881Z,21.30
2022-09-26T14:36:28.814Z,16.80
2022-09-26T14:38:56.748Z,23.48
2022-09-26T14:41:29.871Z,23.85
2022-09-26T14:44:04.063Z,28.15
2022-09-26T14:46:36.451Z,33.83
2022-09-26T14:51:34.810Z,18.35
2022-09-26T14:54:05.924Z,18.73
2022-09-26T14:56:42.794Z,20.90
2022-09-26T14:59:40.145Z,19.15
2022-09-26T15:02:39.568Z,22.55
2022-09-26T15:05:16.230Z,14.77
2022-09-26T15:07:47.187Z,40.42
2022-09-26T15:10:40.106Z,16.52
2022-09-26T15:13:26.203Z,14.48
2022-09-26T15:16:02.537Z,17.88
2022-09-26T15:18:41.316Z,22.45
2022-09-26T15:21:27.428Z,19.33
2022-09-26T15:23:56.920Z,16.77
2022-09-26T15:26:27.365Z,18.08
2022-09-26T15:28:57.606Z,18.08
2022-09-26T15:31:29.008Z,17.90
2022-09-26T15:34:01.515Z,15.63
2022-09-26T15:38:58.304Z,23.65
2022-09-26T15:41:43.627Z,20.58
2022-09-26T15:44:20.578Z,18.65
2022-09-26T15:46:50.548Z,19.20
2022-09-26T15:49:28.414Z,23.00
2022-09-26T15:51:57.650Z,21.35
2022-09-26T15:54:30.011Z,21.75
2022-09-26T15:57:02.390Z,22.23
2022-09-26T15:59:35.408Z,21.63
2022-09-26T16:02:20.191Z,30.52
2022-09-26T16:07:22.521Z,25.42
2022-09-26T16:09:51.930Z,36.60
2022-09-26T16:12:22.733Z,26.92
2022-09-26T16:14:54.809Z,23.45
2022-09-26T16:17:26.845Z,25.52
2022-09-26T16:19:57.443Z,24.65
2022-09-26T16:22:40.067Z,27.27
2022-09-26T16:25:33.830Z,18.88
2022-09-26T16:28:23.001Z,21.50
2022-09-26T16:31:17.825Z,18.58
2022-09-26T16:33:52.246Z,16.35
2022-09-26T16:36:24.428Z,12.93
2022-09-26T16:38:54.460Z,12.73
2022-09-26T16:41:56.370Z,9.10
2022-09-26T16:44:26.496Z,6.75
2022-09-26T16:47:01.622Z,6.50
2022-09-26T16:49:34.446Z,6.82
2022-09-26T16:52:31.887Z,6.03
2022-09-26T16:55:01.631Z,7.57
2022-09-26T16:57:31.732Z,10.25
2022-09-26T17:00:19.859Z,12.90
2022-09-26T17:02:47.903Z,8.20
2022-09-26T17:05:18.528Z,7.68
2022-09-26T17:07:50.227Z,11.43
2022-09-26T17:10:20.513Z,16.60
2022-09-26T17:12:51.361Z,14.55
2022-09-26T17:15:22.908Z,15.65
2022-09-26T17:17:53.668Z,13.07
2022-09-26T17:20:22.130Z,20.40
2022-09-26T17:22:51.292Z,13.35
2022-09-26T17:25:19.999Z,13.50
2022-09-26T17:27:50.740Z,10.30
2022-09-26T17:30:20.339Z,13.02
2022-09-26T17:32:49.863Z,11.45
2022-09-26T17:35:24.887Z,11.38
2022-09-26T17:37:54.521Z,9.50
2022-09-26T17:40:25.088Z,11.02
2022-09-26T17:42:55.331Z,13.30
2022-09-26T17:45:28.886Z,9.38
2022-09-26T17:47:59.023Z,11.40
2022-09-26T17:50:29.306Z,10.48
2022-09-26T17:52:58.941Z,10.15
2022-09-26T17:55:27.087Z,13.05
2022-09-26T17:57:55.595Z,10.73
2022-09-26T18:00:23.360Z,9.02
2022-09-26T18:02:55.943Z,8.95
2022-09-26T18:05:26.620Z,8.48
2022-09-26T18:07:58.568Z,9.27
2022-09-26T18:10:30.396Z,10.18
2022-09-26T18:13:01.123Z,6.18
2022-09-26T18:15:29.817Z,7.85
2022-09-26T18:17:58.903Z,4.82
2022-09-26T18:20:37.015Z,5.07
2022-09-26T18:23:07.704Z,6.38
2022-09-26T18:25:38.191Z,6.20
2022-09-26T18:28:12.449Z,6.72
2022-09-26T18:30:43.089Z,6.60
2022-09-26T18:33:13.585Z,6.53
2022-09-26T18:35:44.047Z,5.47
2022-09-26T18:38:12.520Z,5.93
2022-09-26T18:40:45.651Z,9.95
2022-09-26T18:43:18.126Z,9.82
2022-09-26T18:48:25.808Z,7.18
2022-09-26T18:50:54.577Z,5.68
2022-09-26T18:53:24.484Z,10.52
2022-09-26T18:56:11.288Z,6.35
2022-09-26T18:58:39.463Z,7.18
2022-09-26T19:01:12.286Z,6.55
2022-09-26T19:03:42.379Z,4.82
2022-09-26T19:06:13.583Z,8.32
2022-09-26T19:08:43.823Z,9.00
2022-09-26T19:11:16.489Z,7.35
2022-09-26T19:13:46.037Z,6.05
2022-09-26T19:16:14.239Z,6.20
2022-09-26T19:18:42.403Z,5.40
2022-09-26T19:21:22.088Z,6.90
2022-09-26T19:23:50.622Z,8.20
2022-09-26T19:26:27.613Z,6.28
2022-09-26T19:28:55.979Z,7.18
2022-09-26T19:31:23.899Z,8.73
2022-09-26T19:33:51.819Z,6.70
2022-09-26T19:36:20.680Z,6.18
2022-09-26T19:38:48.616Z,8.23
2022-09-26T19:41:16.512Z,8.70
2022-09-26T19:43:45.797Z,7.43
2022-09-26T19:46:18.354Z,6.55
2022-09-26T19:48:46.234Z,8.90
2022-09-26T19:51:17.322Z,11.10
2022-09-26T19:53:45.617Z,8.05
2022-09-26T19:56:13.446Z,10.45
2022-09-26T19:58:41.230Z,8.35
2022-09-26T20:01:16.677Z,11.10
2022-09-26T20:03:45.452Z,7.25
2022-09-26T20:06:16.122Z,8.20
2022-09-26T20:08:43.945Z,9.23
2022-09-26T20:11:11.856Z,7.63
2022-09-26T20:13:57.162Z,12.57
2022-09-26T20:16:26.621Z,11.05
2022-09-26T20:18:55.737Z,7.40
2022-09-26T20:21:27.122Z,9.32
2022-09-26T20:23:55.641Z,12.70
2022-09-26T20:26:23.582Z,7.45
2022-09-26T20:28:51.378Z,10.50
2022-09-26T20:31:23.121Z,9.80
2022-09-26T20:33:53.355Z,10.20
2022-09-26T20:36:28.537Z,11.88
2022-09-26T20:39:00.408Z,8.50
2022-09-26T20:41:32.472Z,12.07
2022-09-26T20:44:03.694Z,12.10
2022-09-26T20:46:34.780Z,8.65
2022-09-26T20:49:06.900Z,8.95
2022-09-26T20:51:35.614Z,10.32
2022-09-26T20:54:06.496Z,12.38
2022-09-26T20:56:34.327Z,14.13
2022-09-26T20:59:02.050Z,9.77
2022-09-26T21:01:30.098Z,14.63
2022-09-26T21:03:58.613Z,15.93
2022-09-26T21:06:34.273Z,11.00
2022-09-26T21:09:02.637Z,15.35
2022-09-26T21:11:30.459Z,14.88
2022-09-26T21:13:59.857Z,14.75
2022-09-26T21:16:27.713Z,13.23
2022-09-26T21:18:55.524Z,15.02
2022-09-26T21:21:25.115Z,17.15
2022-09-26T21:23:54.987Z,16.20
2022-09-26T21:26:24.923Z,17.80
2022-09-26T21:28:54.330Z,18.25
2022-09-26T21:31:26.165Z,13.55
2022-09-26T21:33:54.826Z,22.20
2022-09-26T21:36:22.598Z,20.10
2022-09-26T21:38:52.932Z,17.13
2022-09-26T21:41:22.223Z,23.67
2022-09-26T21:43:55.986Z,18.77
2022-09-26T21:46:24.459Z,24.35
2022-09-26T21:48:52.866Z,23.85
2022-09-26T21:51:22.661Z,24.02
2022-09-26T21:53:56.328Z,20.25
2022-09-26T21:56:29.930Z,21.45
2022-09-26T21:58:58.254Z,21.48
2022-09-26T22:01:26.152Z,20.50
2022-09-26T22:03:54.045Z,23.88
2022-09-26T22:09:29.637Z,21.23
2022-09-26T22:11:59.210Z,21.15
2022-09-26T22:14:28.519Z,18.67
2022-09-26T22:16:57.561Z,15.93
2022-09-26T22:19:27.322Z,16.20
2022-09-26T22:21:55.804Z,15.40
2022-09-26T22:24:23.515Z,17.95
2022-09-26T22:26:51.471Z,14.73
2022-09-26T22:29:21.144Z,14.45
2022-09-26T22:31:48.896Z,11.80
2022-09-26T22:34:16.671Z,11.32
2022-09-26T22:36:44.695Z,11.57
2022-09-26T22:39:12.448Z,11.60
2022-09-26T22:41:40.179Z,11.10
2022-09-26T22:44:08.068Z,8.55
2022-09-26T22:46:38.158Z,8.27
2022-09-26T22:49:06.178Z,7.65
2022-09-26T22:51:34.483Z,8.88
2022-09-26T22:54:02.635Z,9.07
2022-09-26T22:56:30.533Z,10.50
2022-09-26T22:58:58.278Z,8.02
2022-09-26T23:02:03.192Z,8.85
2022-09-26T23:11:12.543Z,8.13
2022-09-26T23:13:40.964Z,7.50
2022-09-26T23:16:11.757Z,8.23
2022-09-26T23:18:40.775Z,6.80
2022-09-26T23:21:11.270Z,9.82
2022-09-26T23:23:39.836Z,8.75
2022-09-26T23:26:08.696Z,8.38
2022-09-26T23:28:36.460Z,9.38
2022-09-26T23:31:08.277Z,8.07
2022-09-26T23:33:36.440Z,6.78
2022-09-26T23:36:04.996Z,6.80
2022-09-26T23:38:34.911Z,4.85
2022-09-26T23:41:02.759Z,5.18
2022-09-26T23:43:30.631Z,6.63
2022-09-26T23:45:58.541Z,7.85
2022-09-26T23:48:26.295Z,7.70
2022-09-26T23:50:54.365Z,4.25
2022-09-26T23:53:22.254Z,6.45
2022-09-26T23:55:51.700Z,6.90
2022-09-26T23:58:19.566Z,7.43
